aviador You're here:

CYBU Decoded Metar

NIPAWIN AIRPORT in SK, CANADA
Report Time2018-07-22 14:04:00
UTC Time2018-07-22 14:16:00
Flight Rules vfr VFR
Wind180° at 07 kt
W.Decomp.*RWY 21: 5.4 kt HW 4.4 kt LCW
RWY 12: 4.4 kt HW 5.4 kt RCW
W.Rank180° ranks 5
Current wind is below 180° avg. (7.3)
Visibility9999 m
Phenomena:Light Rain
Clouds:Overcast 110 Hf
Expected CloudBase > 800 ft AGL from Temp-Dew spread
Ceiling11,000 ft
Temp18°C (ISA +5)
Dew Point16°C (88% RH)
AAT17.5°C
QNH1012 hPa
Density Alt2,146 ft
Elevation1,227 ft
Report Wrong Elevation
Raw Report
SPECI CYBU 221404Z AUTO 18007KT 8SM -RA OVC110 18/16 A2987 RMK LTNG
DIST W NW SLP121 DENSITY ALT 1800FT=

Extra information for CYBU:More info

Metar Taf Metar & Taf Last 4 Metars F.Rules Stats Wind Profile Meteogram Temp Stats Airport Information Weather charts Add Link Nearby VenuesMetar ALERT Operation Metar Decoded Social comments